Terminal Aerodrome Forecast
Issued by NWS

Home | Current Version | Previous Version | Text Only | Print | Product List | Glossary On
Versions: 1 2 3 4 5 6 7 8 9 10 11 12 13 14 15 16
000
FTUS43 KJKL 311124
TAFSME
TAF
KSME 311124Z 3112/0112 00000KT 1/4SM FG OVC002
     FM311300 VRB03KT 6SM BR FEW050
      TEMPO 3113/3114 5SM BR
     FM311500 VRB05KT P6SM SCT050 BKN100
     FM010700 00000KT 3SM BR SKC
      TEMPO 0108/0112 1/2SM FG=

USA.gov is the U.S. government's official web portal to all federal, state and local government web resources and services.